EFPO

Pori Airport

Pori, Finland
METAR EFPO 210650Z AUTO 23009KT CAVOK 18/06 Q1025
Observed Flight Rules
May-21 @ 06:50 UTC (26 minutes ago) Visual Flight Rules
Wind Visibility Clouds
230° at 9 knots 10,000+ meters
  • Clear skies
Temperatures Readings
Current 18°C / 64°F
Dewpoint 6°C / 43°F
Humidity 46%
Altimeter 30.27" Hg
Pressure 1025 hPa
Elevation 17
METAR EFPO 210650Z AUTO 23009KT CAVOK 18/06 Q1025
Observed Flight Rules
May-21 @ 06:50 UTC
(26 minutes ago)
VFR
Wind Visibility
230° at 9 knots 10,000+ meters
Clouds
  • Clear skies
Temperature Dewpoint
18°C / 64°F 6°C / 43°F
Humidity Altimeter Pressure
46% 30.27" Hg 1025 hPa